Shimanami Star — C6VN9 — position and weather

sailwx.info

Track history (hours):
 
Tides and Currents Weather Stations Pressure Air Temp Water Temp Dewpoint Dewpoint Depression Visibility Wind Speed Wind Dir Waves Ship Positions

Shimanami Star

Last reported at 2015-Jul-27 01:33 UTC. Time now 2015-Sep-02 02:32 UTC.
Position N 03°04' E 100°45'.
Warning: this ship's position is 37 days out of date.

Length 170 m; draft 9.6 m.

Type: Cargo ship. MMSI: 309116000.

Date/timePositionNaut miles runAvg speedWind from/ knotsBaromVisibWave heightAir tempDewpointWater temp
2015-Jul-27 01:33N 03°04' E 100°45'2512.7
2015-Jul-26 23:33N 02°47' E 101°05'2512.7
2015-Jul-26 21:33N 02°36' E 101°28'1212.1
2015-Jul-26 20:33N 02°29' E 101°37'1211.8
2015-Jul-26 19:32N 02°21' E 101°47'13912.4
2015-Jul-26 08:20N 01°10' E 103°46'911.6
2015-Jul-26 07:33N 01°14' E 103°54'2 1.5
2015-Jul-26 06:33N 01°16' E 103°54'0 0.0
2015-Jul-26 05:33N 01°16' E 103°54'0 0.0
2015-Jul-26 04:30N 01°16' E 103°54'0 0.0
2015-Jul-26 03:24N 01°16' E 103°54'0 0.0
2015-Jul-26 02:30N 01°16' E 103°54'0 0.0
2015-Jul-26 01:30N 01°16' E 103°54'0 0.0
2015-Jul-26 00:30N 01°16' E 103°54'1 1.0
2015-Jul-25 23:33N 01°15' E 103°54'4 3.8
2015-Jul-25 22:33N 01°15' E 103°58'10 9.8
2015-Jul-25 21:33N 01°16' E 104°07'  
Track history (hours):
 
Tides and Currents Weather Stations Pressure Air Temp Water Temp Dewpoint Dewpoint Depression Visibility Wind Speed Wind Dir Waves Ship Positions

Shimanami Star

Last reported at 2015-Jul-27 01:33 UTC. Time now 2015-Sep-02 02:32 UTC.
Position N 03°04' E 100°45'.
Warning: this ship's position is 37 days out of date.

Length 170 m; draft 9.6 m.

Type: Cargo ship. MMSI: 309116000.

Date/timePositionNaut miles runAvg speedWind from/ knotsBaromVisibWave heightAir tempDewpointWater temp
2015-Jul-27 01:33N 03°04' E 100°45'2512.7
2015-Jul-26 23:33N 02°47' E 101°05'2512.7
2015-Jul-26 21:33N 02°36' E 101°28'1212.1
2015-Jul-26 20:33N 02°29' E 101°37'1211.8
2015-Jul-26 19:32N 02°21' E 101°47'13912.4
2015-Jul-26 08:20N 01°10' E 103°46'911.6
2015-Jul-26 07:33N 01°14' E 103°54'2 1.5
2015-Jul-26 06:33N 01°16' E 103°54'0 0.0
2015-Jul-26 05:33N 01°16' E 103°54'0 0.0
2015-Jul-26 04:30N 01°16' E 103°54'0 0.0
2015-Jul-26 03:24N 01°16' E 103°54'0 0.0
2015-Jul-26 02:30N 01°16' E 103°54'0 0.0
2015-Jul-26 01:30N 01°16' E 103°54'0 0.0
2015-Jul-26 00:30N 01°16' E 103°54'1 1.0
2015-Jul-25 23:33N 01°15' E 103°54'4 3.8
2015-Jul-25 22:33N 01°15' E 103°58'10 9.8
2015-Jul-25 21:33N 01°16' E 104°07'  

Dump ship's entire track history